createdAt,value
2023-02-13T00:00:26.908Z,33.58
2023-02-13T00:02:29.952Z,33.63
2023-02-13T00:04:33.040Z,37.10
2023-02-13T00:06:37.501Z,32.53
2023-02-13T00:08:40.857Z,31.45
2023-02-13T00:10:43.912Z,31.60
2023-02-13T00:12:46.946Z,32.67
2023-02-13T00:14:49.997Z,32.17
2023-02-13T00:16:52.978Z,34.15
2023-02-13T00:18:56.048Z,34.90
2023-02-13T00:21:04.567Z,33.25
2023-02-13T00:23:08.999Z,39.15
2023-02-13T00:25:12.464Z,32.85
2023-02-13T00:27:15.503Z,32.58
2023-02-13T00:29:18.561Z,36.22
2023-02-13T00:31:22.719Z,38.63
2023-02-13T00:33:25.762Z,34.38
2023-02-13T00:35:28.812Z,33.45
2023-02-13T00:37:31.861Z,33.40
2023-02-13T00:39:36.287Z,28.40
2023-02-13T00:41:39.620Z,32.80
2023-02-13T00:43:42.664Z,31.00
2023-02-13T00:45:45.806Z,32.92
2023-02-13T00:47:49.067Z,32.50
2023-02-13T00:49:52.201Z,33.40
2023-02-13T00:51:55.368Z,31.55
2023-02-13T00:53:58.712Z,33.63
2023-02-13T00:56:03.745Z,32.25
2023-02-13T00:58:06.885Z,33.22
2023-02-13T01:00:10.988Z,31.48
2023-02-13T01:02:14.151Z,36.95
2023-02-13T01:04:17.320Z,32.45
2023-02-13T01:06:20.501Z,33.40
2023-02-13T01:08:23.626Z,38.08
2023-02-13T01:10:27.062Z,31.73
2023-02-13T01:12:31.653Z,33.97
2023-02-13T01:14:35.373Z,33.78
2023-02-13T01:16:38.532Z,36.70
2023-02-13T01:18:41.769Z,34.47
2023-02-13T01:20:45.409Z,32.45
2023-02-13T01:22:48.527Z,31.58
2023-02-13T01:24:52.753Z,35.20
2023-02-13T01:26:55.888Z,32.20
2023-02-13T01:29:00.887Z,33.50
2023-02-13T01:31:04.268Z,33.47
2023-02-13T01:33:07.573Z,33.70
2023-02-13T01:35:12.345Z,30.70
2023-02-13T01:37:15.846Z,32.55
2023-02-13T01:39:18.944Z,31.23
2023-02-13T01:41:22.277Z,36.20
2023-02-13T01:43:26.106Z,31.60
2023-02-13T01:45:32.364Z,31.40
2023-02-13T01:47:41.624Z,29.40
2023-02-13T01:49:48.639Z,28.88
2023-02-13T01:51:55.754Z,31.45
2023-02-13T01:54:03.298Z,30.30
2023-02-13T01:56:12.132Z,32.25
2023-02-13T01:58:20.466Z,32.25
2023-02-13T02:00:24.097Z,31.33
2023-02-13T02:02:30.978Z,33.53
2023-02-13T02:04:39.904Z,30.77
2023-02-13T02:06:50.908Z,28.05
2023-02-13T02:09:04.202Z,30.10
2023-02-13T02:11:15.172Z,28.33
2023-02-13T02:13:21.330Z,33.05
2023-02-13T02:15:24.584Z,28.80
2023-02-13T02:17:29.395Z,29.70
2023-02-13T02:19:39.812Z,28.88
2023-02-13T02:22:06.647Z,28.85
2023-02-13T02:24:28.969Z,32.63
2023-02-13T02:26:56.697Z,36.78
2023-02-13T02:29:28.365Z,27.95
2023-02-13T02:32:01.667Z,27.65
2023-02-13T02:34:17.025Z,28.33
2023-02-13T02:36:32.820Z,25.35
2023-02-13T02:38:49.305Z,30.10
2023-02-13T02:41:02.717Z,29.80
2023-02-13T02:43:27.821Z,25.70
2023-02-13T02:45:40.710Z,31.33
2023-02-13T02:48:14.925Z,29.60
2023-02-13T02:50:36.844Z,29.63
2023-02-13T02:52:55.553Z,23.50
2023-02-13T02:55:07.736Z,25.63
2023-02-13T02:57:21.649Z,26.08
2023-02-13T02:59:50.158Z,24.27
2023-02-13T03:02:18.983Z,27.23
2023-02-13T03:04:45.687Z,23.15
2023-02-13T03:06:53.104Z,24.13
2023-02-13T03:09:17.975Z,25.48
2023-02-13T03:11:38.424Z,24.80
2023-02-13T03:13:45.758Z,23.63
2023-02-13T03:16:08.909Z,27.00
2023-02-13T03:18:41.188Z,23.20
2023-02-13T03:21:09.623Z,23.63
2023-02-13T03:23:15.525Z,29.80
2023-02-13T03:25:30.319Z,23.20
2023-02-13T03:27:59.510Z,23.63
2023-02-13T03:30:13.189Z,23.98
2023-02-13T03:32:25.624Z,23.40
2023-02-13T03:34:55.054Z,26.30
2023-02-13T03:37:20.506Z,25.75
2023-02-13T03:39:30.174Z,22.75
2023-02-13T03:41:41.235Z,25.33
2023-02-13T03:43:52.717Z,21.88
2023-02-13T03:48:09.762Z,22.45
2023-02-13T03:50:14.022Z,22.00
2023-02-13T03:52:25.925Z,25.40
2023-02-13T03:54:54.612Z,27.17
2023-02-13T03:57:15.209Z,22.63
2023-02-13T03:59:23.766Z,23.80
2023-02-13T04:01:30.446Z,22.17
2023-02-13T04:03:42.657Z,26.00
2023-02-13T04:05:50.753Z,22.25
2023-02-13T04:07:55.405Z,23.80
2023-02-13T04:10:01.655Z,26.33
2023-02-13T04:12:14.489Z,24.08
2023-02-13T04:14:21.640Z,23.25
2023-02-13T04:16:30.634Z,25.60
2023-02-13T04:18:35.154Z,25.58
2023-02-13T04:20:40.383Z,27.95
2023-02-13T04:22:44.800Z,26.33
2023-02-13T04:24:50.170Z,26.30
2023-02-13T04:26:55.014Z,23.00
2023-02-13T04:28:58.180Z,27.20
2023-02-13T04:31:01.786Z,26.27
2023-02-13T04:33:05.465Z,24.75
2023-02-13T04:35:09.420Z,24.55
2023-02-13T04:37:12.661Z,24.40
2023-02-13T04:39:15.973Z,23.60
2023-02-13T04:41:20.670Z,24.60
2023-02-13T04:43:25.360Z,24.45
2023-02-13T04:45:28.636Z,23.85
2023-02-13T04:47:31.907Z,23.60
2023-02-13T04:49:35.145Z,23.15
2023-02-13T04:51:38.364Z,26.85
2023-02-13T04:53:41.633Z,27.73
2023-02-13T04:55:44.945Z,24.35
2023-02-13T04:57:49.613Z,24.60
2023-02-13T04:59:52.828Z,26.13
2023-02-13T05:01:56.047Z,24.77
2023-02-13T05:03:59.269Z,25.63
2023-02-13T05:06:02.497Z,25.10
2023-02-13T05:08:06.295Z,29.10
2023-02-13T05:10:10.695Z,27.05
2023-02-13T05:12:13.862Z,26.73
2023-02-13T05:14:18.572Z,23.92
2023-02-13T05:16:21.765Z,25.95
2023-02-13T05:18:25.257Z,23.55
2023-02-13T05:20:28.663Z,28.23
2023-02-13T05:22:49.586Z,28.52
2023-02-13T05:24:52.752Z,26.70
2023-02-13T05:26:55.935Z,28.13
2023-02-13T05:29:16.743Z,29.15
2023-02-13T05:31:21.611Z,28.47
2023-02-13T05:33:25.232Z,25.60
2023-02-13T05:35:28.492Z,24.23
2023-02-13T05:37:31.964Z,26.27
2023-02-13T05:39:35.366Z,28.70
2023-02-13T05:41:38.710Z,24.92
2023-02-13T05:43:42.001Z,28.13
2023-02-13T05:45:45.220Z,27.45
2023-02-13T05:47:49.899Z,26.88
2023-02-13T05:49:53.430Z,26.77
2023-02-13T05:51:56.806Z,26.30
2023-02-13T05:54:00.268Z,28.48
2023-02-13T05:56:04.458Z,28.58
2023-02-13T05:58:09.514Z,27.85
2023-02-13T06:00:13.965Z,27.20
2023-02-13T06:02:17.345Z,26.20
2023-02-13T06:04:22.041Z,27.48
2023-02-13T06:06:25.478Z,27.65
2023-02-13T06:08:28.806Z,29.17
2023-02-13T06:10:32.082Z,28.70
2023-02-13T06:12:35.661Z,27.23
2023-02-13T06:14:38.858Z,25.98
2023-02-13T06:16:42.626Z,27.15
2023-02-13T06:18:45.868Z,29.85
2023-02-13T06:20:50.676Z,31.35
2023-02-13T06:22:54.508Z,28.13
2023-02-13T06:24:57.713Z,29.13
2023-02-13T06:27:00.946Z,30.65
2023-02-13T06:29:05.820Z,28.88
2023-02-13T06:31:10.157Z,28.27
2023-02-13T06:33:13.627Z,30.75
2023-02-13T06:35:17.447Z,31.65
2023-02-13T06:37:22.036Z,31.88
2023-02-13T06:39:25.242Z,27.77
2023-02-13T06:41:28.483Z,30.75
2023-02-13T06:43:32.201Z,30.73
2023-02-13T06:45:35.417Z,27.77
2023-02-13T06:47:42.891Z,27.60
2023-02-13T06:49:46.120Z,28.42
2023-02-13T06:51:49.306Z,29.30
2023-02-13T06:53:53.907Z,35.67
2023-02-13T06:55:57.970Z,31.48
2023-02-13T06:58:04.111Z,30.55
2023-02-13T07:00:09.084Z,31.30
2023-02-13T07:02:12.522Z,28.60
2023-02-13T07:04:15.812Z,29.05
2023-02-13T07:06:19.848Z,29.35
2023-02-13T07:08:23.075Z,28.20
2023-02-13T07:10:27.667Z,29.55
2023-02-13T07:12:30.928Z,28.65
2023-02-13T07:14:34.146Z,31.17
2023-02-13T07:16:37.436Z,30.30
2023-02-13T07:18:40.827Z,28.13
2023-02-13T07:20:44.041Z,31.05
2023-02-13T07:22:47.236Z,26.77
2023-02-13T07:24:50.488Z,33.05
2023-02-13T07:26:55.071Z,31.08
2023-02-13T07:29:10.480Z,30.67
2023-02-13T07:31:14.319Z,32.55
2023-02-13T07:33:17.961Z,27.65
2023-02-13T07:35:21.197Z,29.10
2023-02-13T07:37:25.047Z,29.05
2023-02-13T07:39:28.234Z,30.75
2023-02-13T07:41:31.405Z,28.88
2023-02-13T07:43:36.131Z,28.98
2023-02-13T07:45:39.377Z,30.13
2023-02-13T07:47:42.668Z,27.75
2023-02-13T07:49:45.850Z,27.80
2023-02-13T07:51:49.031Z,26.08
2023-02-13T07:53:52.557Z,30.05
2023-02-13T07:55:56.328Z,29.42
2023-02-13T07:58:01.687Z,27.60
2023-02-13T08:00:07.913Z,30.73
2023-02-13T08:02:16.127Z,30.48
2023-02-13T08:04:19.484Z,30.98
2023-02-13T08:06:23.181Z,30.98
2023-02-13T08:08:26.373Z,28.85
2023-02-13T08:10:46.890Z,31.17
2023-02-13T08:12:50.794Z,29.45
2023-02-13T08:14:54.742Z,31.95
2023-02-13T08:17:00.353Z,31.25
2023-02-13T08:19:03.609Z,31.55
2023-02-13T08:21:07.234Z,30.65
2023-02-13T08:23:12.754Z,30.92
2023-02-13T08:25:16.011Z,31.10
2023-02-13T08:27:19.265Z,31.73
2023-02-13T08:29:22.514Z,27.50
2023-02-13T08:31:25.958Z,30.45
2023-02-13T08:33:31.580Z,28.00
2023-02-13T08:35:34.828Z,27.85
2023-02-13T08:37:38.059Z,36.10
2023-02-13T08:39:41.336Z,31.45
2023-02-13T08:41:44.624Z,30.83
2023-02-13T08:43:47.837Z,25.10
2023-02-13T08:45:51.138Z,27.23
2023-02-13T08:47:57.456Z,25.83
2023-02-13T08:50:02.163Z,27.77
2023-02-13T08:52:05.904Z,28.30
2023-02-13T08:54:09.173Z,25.38
2023-02-13T08:56:12.623Z,26.95
2023-02-13T08:58:15.972Z,27.40
2023-02-13T09:00:19.548Z,26.20
2023-02-13T09:02:22.802Z,27.55
2023-02-13T09:04:26.039Z,28.88
2023-02-13T09:06:30.671Z,27.65
2023-02-13T09:08:35.647Z,28.48
2023-02-13T09:10:39.764Z,26.55
2023-02-13T09:12:42.984Z,30.35
2023-02-13T09:14:46.174Z,26.33
2023-02-13T09:16:49.463Z,23.40
2023-02-13T09:18:53.158Z,26.95
2023-02-13T09:21:01.093Z,25.05
2023-02-13T09:23:05.671Z,25.20
2023-02-13T09:25:09.503Z,29.00
2023-02-13T09:27:12.691Z,23.63
2023-02-13T09:29:16.142Z,25.42
2023-02-13T09:31:24.117Z,23.02
2023-02-13T09:33:27.931Z,22.85
2023-02-13T09:35:31.118Z,23.77
2023-02-13T09:37:34.406Z,23.33
2023-02-13T09:39:39.447Z,23.67
2023-02-13T09:41:46.269Z,26.65
2023-02-13T09:43:52.808Z,24.02
2023-02-13T09:45:59.929Z,25.83
2023-02-13T09:48:03.684Z,27.02
2023-02-13T09:50:13.552Z,23.08
2023-02-13T09:52:16.788Z,25.08
2023-02-13T09:54:20.133Z,23.65
2023-02-13T09:56:38.761Z,24.00
2023-02-13T09:58:45.873Z,24.25
2023-02-13T10:00:54.717Z,23.48
2023-02-13T10:03:27.106Z,23.60
2023-02-13T10:05:49.096Z,23.25
2023-02-13T10:08:01.316Z,25.60
2023-02-13T10:10:14.561Z,25.98
2023-02-13T10:12:50.029Z,28.40
2023-02-13T10:15:11.420Z,23.52
2023-02-13T10:17:18.978Z,24.42
2023-02-13T10:19:33.810Z,25.48
2023-02-13T10:21:48.554Z,21.45
2023-02-13T10:23:58.477Z,27.08
2023-02-13T10:26:03.877Z,26.48
2023-02-13T10:28:14.490Z,25.20
2023-02-13T10:30:22.010Z,24.70
2023-02-13T10:32:31.975Z,25.17
2023-02-13T10:34:40.051Z,26.55
2023-02-13T10:36:47.360Z,22.38
2023-02-13T10:38:59.433Z,23.92
2023-02-13T10:41:15.183Z,26.63
2023-02-13T10:43:22.297Z,26.75
2023-02-13T10:45:47.245Z,27.70
2023-02-13T10:48:02.650Z,28.55
2023-02-13T10:50:20.649Z,25.27
2023-02-13T10:52:38.280Z,24.98
2023-02-13T10:54:58.895Z,24.67
2023-02-13T10:57:12.547Z,25.45
2023-02-13T10:59:35.409Z,29.92
2023-02-13T11:01:46.833Z,27.48
2023-02-13T11:04:01.822Z,27.02
2023-02-13T11:06:09.438Z,27.42
2023-02-13T11:08:20.137Z,31.73
2023-02-13T11:10:25.418Z,28.42
2023-02-13T11:12:30.667Z,28.23
2023-02-13T11:14:35.250Z,29.08
2023-02-13T11:16:48.612Z,28.05
2023-02-13T11:18:52.117Z,26.88
2023-02-13T11:21:02.529Z,28.00
2023-02-13T11:23:36.233Z,27.20
2023-02-13T11:25:39.827Z,32.78
2023-02-13T11:27:43.354Z,28.80
2023-02-13T11:29:56.943Z,29.58
2023-02-13T11:32:18.388Z,27.75
2023-02-13T11:34:27.336Z,27.75
2023-02-13T11:36:32.062Z,30.20
2023-02-13T11:38:35.630Z,31.52
2023-02-13T11:40:39.551Z,28.55
2023-02-13T11:42:44.149Z,30.80
2023-02-13T11:44:52.997Z,29.88
2023-02-13T11:46:59.339Z,34.33
2023-02-13T11:49:04.027Z,31.50
2023-02-13T11:51:07.682Z,31.58
2023-02-13T11:53:20.917Z,32.50
2023-02-13T11:55:30.843Z,28.58
2023-02-13T11:57:36.083Z,30.15
2023-02-13T11:59:44.505Z,29.50
2023-02-13T12:01:50.368Z,32.50
2023-02-13T12:04:05.666Z,30.58
2023-02-13T12:06:14.954Z,30.77
2023-02-13T12:08:18.561Z,34.55
2023-02-13T12:10:24.465Z,33.15
2023-02-13T12:12:35.182Z,34.92
2023-02-13T12:14:41.787Z,34.20
2023-02-13T12:16:50.545Z,34.35
2023-02-13T12:18:57.461Z,34.15
2023-02-13T12:21:09.777Z,34.60
2023-02-13T12:23:27.233Z,32.97
2023-02-13T12:25:47.941Z,32.40
2023-02-13T12:28:05.682Z,34.78
2023-02-13T12:30:30.116Z,31.00
2023-02-13T12:32:47.283Z,30.10
2023-02-13T12:35:15.982Z,32.33
2023-02-13T12:37:35.482Z,30.67
2023-02-13T12:39:43.074Z,31.25
2023-02-13T12:41:55.111Z,34.45
2023-02-13T12:44:09.913Z,35.72
2023-02-13T12:46:23.224Z,31.77
2023-02-13T12:48:38.604Z,30.52
2023-02-13T12:50:58.311Z,29.63
2023-02-13T12:53:29.731Z,30.95
2023-02-13T12:55:47.204Z,28.15
2023-02-13T12:58:06.573Z,31.95
2023-02-13T13:00:27.824Z,28.65
2023-02-13T13:03:08.035Z,29.50
2023-02-13T13:05:27.314Z,34.08
2023-02-13T13:07:44.711Z,28.58
2023-02-13T13:10:04.233Z,32.13
2023-02-13T13:12:27.401Z,33.30
2023-02-13T13:14:38.546Z,31.20
2023-02-13T13:16:51.725Z,29.20
2023-02-13T13:19:11.724Z,31.65
2023-02-13T13:21:42.755Z,29.90
2023-02-13T13:23:51.018Z,31.67
2023-02-13T13:26:07.755Z,34.40
2023-02-13T13:28:17.149Z,31.00
2023-02-13T13:30:25.074Z,32.75
2023-02-13T13:32:30.312Z,34.05
2023-02-13T13:34:36.445Z,30.00
2023-02-13T13:36:47.453Z,30.05
2023-02-13T13:39:01.623Z,33.42
2023-02-13T13:41:15.225Z,31.45
2023-02-13T13:43:27.302Z,33.10
2023-02-13T13:45:40.149Z,33.20
2023-02-13T13:47:58.782Z,33.42
2023-02-13T13:50:05.816Z,31.88
2023-02-13T13:52:21.940Z,35.45
2023-02-13T13:54:36.150Z,32.08
2023-02-13T13:57:12.543Z,33.28
2023-02-13T13:59:18.988Z,39.38
2023-02-13T14:01:29.424Z,33.30
2023-02-13T14:03:36.995Z,35.35
2023-02-13T14:05:59.254Z,33.90
2023-02-13T14:08:04.661Z,34.30
2023-02-13T14:10:30.338Z,34.17
2023-02-13T14:12:48.318Z,34.67
2023-02-13T14:14:53.122Z,33.08
2023-02-13T14:16:58.131Z,35.05
2023-02-13T14:19:01.364Z,32.97
2023-02-13T14:21:06.100Z,32.88
2023-02-13T14:23:28.971Z,40.10
2023-02-13T14:25:32.380Z,33.42
2023-02-13T14:27:38.365Z,39.80
2023-02-13T14:29:49.434Z,36.80
2023-02-13T14:32:17.521Z,35.35
2023-02-13T14:34:26.738Z,36.20
2023-02-13T14:36:33.690Z,38.08
2023-02-13T14:38:37.590Z,41.03
2023-02-13T14:40:48.000Z,34.15
2023-02-13T14:42:55.377Z,36.10
2023-02-13T14:45:03.396Z,36.35
2023-02-13T14:47:20.683Z,40.95
2023-02-13T14:49:28.519Z,39.58
2023-02-13T14:51:36.237Z,44.47
2023-02-13T14:53:49.013Z,40.72
2023-02-13T14:55:59.112Z,37.03
2023-02-13T14:58:08.734Z,38.20
2023-02-13T15:00:26.105Z,39.28
2023-02-13T15:02:32.931Z,34.90
2023-02-13T15:04:42.243Z,37.85
2023-02-13T15:06:47.128Z,36.95
2023-02-13T15:08:52.742Z,39.88
2023-02-13T15:10:58.115Z,34.53
2023-02-13T15:13:03.939Z,37.35
2023-02-13T15:15:26.579Z,37.42
2023-02-13T15:17:38.198Z,38.30
2023-02-13T15:19:46.783Z,34.75
2023-02-13T15:21:55.799Z,38.00
2023-02-13T15:23:59.004Z,39.85
2023-02-13T15:26:04.458Z,33.80
2023-02-13T15:28:09.797Z,36.13
2023-02-13T15:30:21.711Z,40.25
2023-02-13T15:32:32.484Z,38.92
2023-02-13T15:34:37.083Z,36.58
2023-02-13T15:36:42.500Z,37.95
2023-02-13T15:38:45.650Z,36.83
2023-02-13T15:40:52.107Z,34.55
2023-02-13T15:42:56.394Z,30.58
2023-02-13T15:44:59.758Z,33.65
2023-02-13T15:47:07.427Z,33.90
2023-02-13T15:49:16.673Z,31.20
2023-02-13T15:51:21.322Z,32.05
2023-02-13T15:53:24.593Z,34.20
2023-02-13T15:55:30.381Z,30.33
2023-02-13T15:57:34.185Z,32.03
2023-02-13T15:59:39.676Z,34.88
2023-02-13T16:01:44.693Z,36.17
2023-02-13T16:03:50.420Z,33.50
2023-02-13T16:05:55.448Z,31.45
2023-02-13T16:08:01.367Z,33.55
2023-02-13T16:10:17.582Z,32.42
2023-02-13T16:12:23.629Z,36.67
2023-02-13T16:14:29.174Z,31.90
2023-02-13T16:16:36.218Z,34.47
2023-02-13T16:18:41.656Z,33.65
2023-02-13T16:20:44.847Z,31.55
2023-02-13T16:22:52.392Z,34.25
2023-02-13T16:25:03.950Z,33.90
2023-02-13T16:27:14.608Z,31.05
2023-02-13T16:29:21.739Z,32.75
2023-02-13T16:31:25.012Z,30.80
2023-02-13T16:33:32.159Z,30.45
2023-02-13T16:35:39.161Z,31.80
2023-02-13T16:37:53.765Z,31.98
2023-02-13T16:39:57.222Z,31.00
2023-02-13T16:42:02.508Z,33.97
2023-02-13T16:44:06.377Z,35.70
2023-02-13T16:46:36.305Z,36.58
2023-02-13T16:48:39.899Z,33.65
2023-02-13T16:50:44.215Z,33.33
2023-02-13T16:52:47.863Z,33.33
2023-02-13T16:54:55.907Z,34.80
2023-02-13T16:57:01.891Z,34.30
2023-02-13T16:59:15.422Z,32.47
2023-02-13T17:01:18.759Z,32.80
2023-02-13T17:03:22.055Z,32.65
2023-02-13T17:05:27.809Z,37.13
2023-02-13T17:07:32.734Z,33.13
2023-02-13T17:09:36.002Z,34.80
2023-02-13T17:11:40.818Z,32.03
2023-02-13T17:13:44.041Z,32.92
2023-02-13T17:15:51.824Z,31.13
2023-02-13T17:17:55.682Z,34.30
2023-02-13T17:19:59.077Z,34.60
2023-02-13T17:22:02.459Z,34.63
2023-02-13T17:24:07.349Z,36.85
2023-02-13T17:26:10.577Z,34.50
2023-02-13T17:28:16.536Z,35.03
2023-02-13T17:30:23.217Z,33.47
2023-02-13T17:32:27.971Z,37.00
2023-02-13T17:34:31.237Z,37.60
2023-02-13T17:36:34.386Z,34.05
2023-02-13T17:38:37.564Z,37.45
2023-02-13T17:40:42.280Z,35.45
2023-02-13T17:42:47.523Z,36.03
2023-02-13T17:44:52.608Z,36.30
2023-02-13T17:46:55.808Z,34.65
2023-02-13T17:48:59.009Z,34.28
2023-02-13T17:51:02.297Z,35.90
2023-02-13T17:53:07.984Z,36.67
2023-02-13T17:55:17.698Z,37.75
2023-02-13T17:57:21.148Z,39.55
2023-02-13T17:59:25.599Z,40.03
2023-02-13T18:01:30.475Z,43.38
2023-02-13T18:03:33.737Z,45.42
2023-02-13T18:05:36.890Z,47.00
2023-02-13T18:07:41.538Z,44.97
2023-02-13T18:09:44.839Z,43.17
2023-02-13T18:12:03.702Z,46.75
2023-02-13T18:14:08.327Z,41.47
2023-02-13T18:16:12.403Z,40.78
2023-02-13T18:18:17.798Z,42.33
2023-02-13T18:20:22.417Z,39.92
2023-02-13T18:22:25.722Z,45.15
2023-02-13T18:24:32.832Z,40.35
2023-02-13T18:26:36.035Z,39.63
2023-02-13T18:28:39.177Z,43.42
2023-02-13T18:30:43.845Z,44.30
2023-02-13T18:32:47.843Z,40.67
2023-02-13T18:34:52.347Z,39.38
2023-02-13T18:36:55.518Z,43.65
2023-02-13T18:38:58.674Z,41.47
2023-02-13T18:41:02.225Z,46.90
2023-02-13T18:43:05.523Z,47.53
2023-02-13T18:45:09.540Z,45.45
2023-02-13T18:47:13.108Z,43.38
2023-02-13T18:49:16.335Z,42.45
2023-02-13T18:51:20.947Z,51.97
2023-02-13T18:53:24.547Z,40.95
2023-02-13T18:55:27.762Z,43.13
2023-02-13T18:57:32.450Z,46.25
2023-02-13T18:59:35.673Z,43.42
2023-02-13T19:01:38.843Z,42.55
2023-02-13T19:03:42.346Z,42.78
2023-02-13T19:05:45.776Z,43.55
2023-02-13T19:07:50.398Z,42.67
2023-02-13T19:09:53.847Z,43.10
2023-02-13T19:11:57.018Z,44.92
2023-02-13T19:14:01.331Z,44.38
2023-02-13T19:16:05.567Z,47.25
2023-02-13T19:18:09.343Z,49.03
2023-02-13T19:20:15.585Z,42.78
2023-02-13T19:22:19.817Z,44.85
2023-02-13T19:24:24.366Z,46.38
2023-02-13T19:26:28.498Z,41.75
2023-02-13T19:28:31.751Z,49.83
2023-02-13T19:30:34.954Z,47.70
2023-02-13T19:32:38.124Z,49.10
2023-02-13T19:34:41.269Z,45.17
2023-02-13T19:36:44.507Z,48.00
2023-02-13T19:38:48.222Z,50.65
2023-02-13T19:40:52.900Z,47.88
2023-02-13T19:42:56.066Z,45.03
2023-02-13T19:44:59.453Z,45.22
2023-02-13T19:47:02.587Z,46.20
2023-02-13T19:49:06.567Z,43.25
2023-02-13T19:51:10.891Z,43.90
2023-02-13T19:53:14.019Z,44.53
2023-02-13T19:55:17.630Z,46.58
2023-02-13T19:57:22.676Z,49.22
2023-02-13T19:59:25.821Z,47.10
2023-02-13T20:01:30.906Z,48.53
2023-02-13T20:03:34.231Z,48.00
2023-02-13T20:05:41.141Z,50.90
2023-02-13T20:07:44.415Z,51.30
2023-02-13T20:09:47.749Z,43.35
2023-02-13T20:11:51.387Z,46.25
2023-02-13T20:13:57.003Z,47.30
2023-02-13T20:16:00.263Z,52.25
2023-02-13T20:18:03.456Z,50.60
2023-02-13T20:20:08.018Z,45.70
2023-02-13T20:22:13.553Z,50.47
2023-02-13T20:24:17.196Z,47.00
2023-02-13T20:26:21.094Z,49.15
2023-02-13T20:28:24.245Z,48.95
2023-02-13T20:30:29.645Z,47.28
2023-02-13T20:32:32.991Z,48.92
2023-02-13T20:34:44.313Z,49.60
2023-02-13T20:36:53.303Z,45.40
2023-02-13T20:38:59.668Z,49.58
2023-02-13T20:41:08.512Z,47.13
2023-02-13T20:43:11.665Z,53.92
2023-02-13T20:45:14.783Z,49.58
2023-02-13T20:47:19.480Z,51.08
2023-02-13T20:49:22.738Z,49.90
2023-02-13T20:51:25.907Z,47.63
2023-02-13T20:53:30.361Z,47.70
2023-02-13T20:55:33.752Z,46.05
2023-02-13T20:57:37.779Z,48.80
2023-02-13T20:59:41.207Z,45.55
2023-02-13T21:01:45.698Z,51.83
2023-02-13T21:03:55.003Z,55.65
2023-02-13T21:05:58.196Z,48.20
2023-02-13T21:08:01.751Z,45.80
2023-02-13T21:10:05.881Z,47.40
2023-02-13T21:12:09.121Z,48.75
2023-02-13T21:14:13.093Z,51.35
2023-02-13T21:16:18.699Z,49.33
2023-02-13T21:18:21.927Z,52.10
2023-02-13T21:20:26.459Z,47.28
2023-02-13T21:22:31.233Z,53.97
2023-02-13T21:24:34.868Z,49.67
2023-02-13T21:26:38.292Z,50.72
2023-02-13T21:28:42.785Z,51.40
2023-02-13T21:30:46.120Z,51.70
2023-02-13T21:32:49.285Z,49.45
2023-02-13T21:34:55.953Z,51.00
2023-02-13T21:37:01.177Z,49.28
2023-02-13T21:39:05.030Z,47.80
2023-02-13T21:41:09.859Z,47.60
2023-02-13T21:43:12.971Z,49.90
2023-02-13T21:45:16.475Z,54.28
2023-02-13T21:47:20.017Z,50.55
2023-02-13T21:49:25.101Z,52.05
2023-02-13T21:51:30.238Z,53.05
2023-02-13T21:53:35.039Z,51.85
2023-02-13T21:55:38.334Z,50.97
2023-02-13T21:57:41.606Z,52.15
2023-02-13T21:59:44.991Z,50.40
2023-02-13T22:01:50.609Z,53.70
2023-02-13T22:03:54.235Z,49.83
2023-02-13T22:05:57.490Z,51.08
2023-02-13T22:08:17.239Z,55.42
2023-02-13T22:10:21.869Z,53.55
2023-02-13T22:12:25.182Z,50.47
2023-02-13T22:14:28.443Z,54.45
2023-02-13T22:16:32.704Z,57.38
2023-02-13T22:18:37.320Z,54.38
2023-02-13T22:20:40.979Z,49.42
2023-02-13T22:22:44.226Z,46.47
2023-02-13T22:24:47.543Z,45.08
2023-02-13T22:26:52.197Z,53.38
2023-02-13T22:28:56.912Z,53.53
2023-02-13T22:31:01.160Z,53.15
2023-02-13T22:33:05.263Z,52.60
2023-02-13T22:35:09.657Z,54.28
2023-02-13T22:37:12.833Z,52.97
2023-02-13T22:39:16.138Z,51.80
2023-02-13T22:41:22.572Z,53.03
2023-02-13T22:43:27.245Z,53.08
2023-02-13T22:45:30.884Z,54.63
2023-02-13T22:47:34.122Z,55.83
2023-02-13T22:49:37.359Z,53.28
2023-02-13T22:51:40.644Z,55.15
2023-02-13T22:53:44.348Z,53.33
2023-02-13T22:55:47.567Z,55.90
2023-02-13T22:57:54.337Z,55.42
2023-02-13T22:59:59.074Z,55.05
2023-02-13T23:02:02.337Z,57.42
2023-02-13T23:04:05.714Z,54.40
2023-02-13T23:06:10.519Z,60.28
2023-02-13T23:08:13.864Z,57.45
2023-02-13T23:10:18.966Z,53.50
2023-02-13T23:12:36.774Z,56.83
2023-02-13T23:14:40.034Z,56.72
2023-02-13T23:17:02.264Z,58.10
2023-02-13T23:19:05.528Z,54.80
2023-02-13T23:21:09.551Z,58.63
2023-02-13T23:23:12.989Z,55.92
2023-02-13T23:25:16.590Z,57.13
2023-02-13T23:27:19.852Z,54.25
2023-02-13T23:29:23.403Z,54.08
2023-02-13T23:31:27.161Z,51.75
2023-02-13T23:33:32.381Z,57.60
2023-02-13T23:35:35.609Z,58.28
2023-02-13T23:37:39.071Z,55.65
2023-02-13T23:39:42.359Z,55.63
2023-02-13T23:41:45.663Z,58.28
2023-02-13T23:43:48.841Z,56.72
2023-02-13T23:45:52.110Z,57.75
2023-02-13T23:47:55.388Z,54.17
2023-02-13T23:49:59.943Z,60.15
2023-02-13T23:52:03.191Z,58.83
2023-02-13T23:54:06.515Z,54.10
2023-02-13T23:56:09.702Z,54.00
2023-02-13T23:58:12.885Z,58.08
